Time;durP1;ratioP1;P1;durP2;ratioP2;P2;SDS_P1;SDS_P2;PMS_P1;PMS_P2;Temp;Humidity;BMP_temperature;BMP_pressure;BME280_temperature;BME280_humidity;BME280_pressure;Samples;Min_cycle;Max_cycle;Signal;HPM_P1;HPM_P2
2021/03/07 00:01:08;;;;;;;20.73;9.43;;;-0.20;93.90;;;;;;4413074;32;20170;-64
2021/03/07 00:03:37;;;;;;;17.50;9.47;;;-0.30;94.20;;;;;;4416903;32;20147;-66
2021/03/07 00:06:04;;;;;;;20.73;9.97;;;-0.20;94.30;;;;;;4416556;32;20148;-66
2021/03/07 00:08:35;;;;;;;15.53;8.70;;;-0.20;94.20;;;;;;4415368;32;20209;-66
2021/03/07 00:11:02;;;;;;;13.43;8.17;;;-0.20;94.20;;;;;;4413381;32;20649;-66
2021/03/07 00:13:31;;;;;;;13.03;8.13;;;-0.20;94.20;;;;;;4417119;32;20584;-66
2021/03/07 00:15:57;;;;;;;14.13;8.30;;;-0.20;94.20;;;;;;4411158;32;20474;-64
2021/03/07 00:18:27;;;;;;;15.67;8.83;;;-0.20;94.00;;;;;;4415646;32;20501;-64
2021/03/07 00:20:54;;;;;;;13.60;7.67;;;-0.20;94.00;;;;;;4421506;32;20139;-64
2021/03/07 00:23:28;;;;;;;14.37;8.03;;;-0.10;93.80;;;;;;4410815;32;20140;-64
2021/03/07 00:25:55;;;;;;;15.33;7.57;;;-0.20;93.90;;;;;;4421338;32;20208;-64
2021/03/07 00:28:26;;;;;;;12.90;7.30;;;-0.20;94.00;;;;;;4415931;32;20191;-65
2021/03/07 00:30:58;;;;;;;11.90;7.60;;;-0.20;94.00;;;;;;4413146;32;20139;-65
2021/03/07 00:33:25;;;;;;;15.40;8.37;;;-0.30;94.10;;;;;;4422239;32;20162;-67
2021/03/07 00:35:51;;;;;;;12.90;8.10;;;-0.30;94.10;;;;;;4422935;32;20209;-64
2021/03/07 00:38:21;;;;;;;11.27;7.30;;;-0.30;94.00;;;;;;4422476;32;20152;-64
2021/03/07 00:40:47;;;;;;;13.17;7.80;;;-0.30;94.10;;;;;;4411611;32;20144;-64
2021/03/07 00:43:14;;;;;;;13.67;7.73;;;-0.40;94.00;;;;;;4408230;32;20215;-63
2021/03/07 00:45:45;;;;;;;17.90;8.20;;;-0.40;94.30;;;;;;4413931;32;20155;-63
2021/03/07 00:48:17;;;;;;;16.20;8.03;;;-0.40;94.20;;;;;;4408723;32;20271;-65
2021/03/07 00:50:48;;;;;;;12.23;7.60;;;-0.40;94.40;;;;;;4412738;32;20167;-64
2021/03/07 00:53:18;;;;;;;11.87;7.40;;;-0.40;94.40;;;;;;4420348;32;20177;-64
2021/03/07 00:55:46;;;;;;;20.27;8.50;;;-0.40;94.40;;;;;;4423610;32;20166;-64
2021/03/07 00:58:15;;;;;;;14.47;8.43;;;-0.50;94.40;;;;;;4411605;32;20219;-64
2021/03/07 01:00:48;;;;;;;15.67;8.13;;;-0.50;94.50;;;;;;4409115;32;20610;-64
2021/03/07 01:03:17;;;;;;;13.70;8.43;;;-0.50;94.50;;;;;;4413871;32;20174;-63
2021/03/07 01:05:48;;;;;;;12.80;7.63;;;-0.50;94.60;;;;;;4420697;32;20148;-64
2021/03/07 01:08:16;;;;;;;13.43;7.77;;;-0.50;94.40;;;;;;4417102;32;20254;-63
2021/03/07 01:10:47;;;;;;;11.87;7.63;;;-0.50;94.50;;;;;;4417622;32;20611;-63
2021/03/07 01:13:17;;;;;;;12.93;7.30;;;-0.50;94.60;;;;;;4416444;32;20131;-64
2021/03/07 01:15:52;;;;;;;12.90;7.47;;;-0.50;94.50;;;;;;4408625;32;20158;-64
2021/03/07 01:18:19;;;;;;;12.53;7.87;;;-0.50;94.50;;;;;;4419296;32;20195;-63
2021/03/07 01:20:46;;;;;;;15.23;8.23;;;-0.50;94.50;;;;;;4420577;32;20175;-65
2021/03/07 01:23:20;;;;;;;13.37;7.03;;;-0.50;94.40;;;;;;4414183;32;20144;-63
2021/03/07 01:25:51;;;;;;;12.07;7.53;;;-0.50;94.50;;;;;;4406838;32;20160;-63
2021/03/07 01:28:27;;;;;;;16.87;7.93;;;-0.50;94.60;;;;;;4414403;32;20173;-63
2021/03/07 01:30:59;;;;;;;14.73;7.90;;;-0.40;94.60;;;;;;4421431;32;20140;-64
2021/03/07 01:33:27;;;;;;;17.60;8.77;;;-0.50;94.70;;;;;;4418569;32;20165;-63
2021/03/07 01:36:06;;;;;;;11.10;8.57;;;-0.40;94.50;;;;;;4413641;32;20156;-64
2021/03/07 01:38:41;;;;;;;16.13;8.30;;;-0.40;94.40;;;;;;4414550;32;20204;-64
2021/03/07 01:41:11;;;;;;;14.57;7.50;;;-0.50;94.40;;;;;;4408904;32;20238;-65
2021/03/07 01:43:37;;;;;;;13.63;7.37;;;-0.50;94.40;;;;;;4412354;32;20185;-63
2021/03/07 01:46:08;;;;;;;14.03;8.20;;;-0.50;94.40;;;;;;4411798;32;20549;-63
2021/03/07 01:48:36;;;;;;;14.13;7.60;;;-0.50;94.30;;;;;;4414757;32;20166;-65
2021/03/07 01:51:04;;;;;;;12.87;8.10;;;-0.50;94.40;;;;;;4416330;32;20205;-65
2021/03/07 01:53:30;;;;;;;13.37;7.63;;;-0.60;94.40;;;;;;4413057;32;20132;-65
2021/03/07 01:55:57;;;;;;;16.77;9.27;;;-0.50;94.70;;;;;;4410598;32;20162;-63
2021/03/07 01:58:26;;;;;;;11.17;7.20;;;-0.70;94.80;;;;;;4409913;32;20160;-64
2021/03/07 02:00:52;;;;;;;11.13;7.43;;;-0.60;94.80;;;;;;4417862;32;20147;-64
2021/03/07 02:03:19;;;;;;;12.60;7.47;;;-0.60;94.60;;;;;;4416467;32;20144;-64
2021/03/07 02:05:47;;;;;;;16.20;8.17;;;-0.60;94.60;;;;;;4409280;32;20159;-63
2021/03/07 02:08:18;;;;;;;13.23;7.67;;;-0.70;94.70;;;;;;4405982;32;20227;-65
2021/03/07 02:10:51;;;;;;;13.10;7.70;;;-0.70;94.60;;;;;;4407289;32;20159;-63
2021/03/07 02:13:24;;;;;;;13.33;8.17;;;-0.70;94.60;;;;;;4405610;32;20568;-65
2021/03/07 02:15:58;;;;;;;12.70;8.27;;;-0.70;94.60;;;;;;4404359;32;20139;-63
2021/03/07 02:18:25;;;;;;;12.40;7.27;;;-0.80;94.60;;;;;;4407682;32;20649;-66
2021/03/07 02:20:58;;;;;;;9.87;7.70;;;-0.70;94.50;;;;;;4411604;32;20764;-64
2021/03/07 02:23:34;;;;;;;12.33;7.80;;;-0.70;94.60;;;;;;4419075;32;20639;-63
2021/03/07 02:26:06;;;;;;;13.77;7.53;;;-0.80;94.60;;;;;;4414496;32;20265;-63
2021/03/07 02:28:32;;;;;;;14.60;7.20;;;-0.80;95.00;;;;;;4419053;32;20880;-63
2021/03/07 02:30:59;;;;;;;21.07;8.90;;;-0.80;94.70;;;;;;4414183;32;20151;-65
2021/03/07 02:33:34;;;;;;;20.87;8.77;;;-0.80;94.70;;;;;;4404875;32;20162;-64
2021/03/07 02:36:13;;;;;;;12.97;7.90;;;-0.90;94.70;;;;;;4405687;32;20289;-64
2021/03/07 02:38:46;;;;;;;16.70;8.23;;;-0.90;94.70;;;;;;4411729;32;20525;-63
2021/03/07 02:41:16;;;;;;;13.37;8.37;;;-0.90;94.80;;;;;;4418776;32;20143;-63
2021/03/07 02:43:46;;;;;;;13.83;8.23;;;-0.90;94.80;;;;;;4407620;32;20174;-63
2021/03/07 02:46:15;;;;;;;12.73;8.03;;;-1.00;94.70;;;;;;4415384;32;20208;-64
2021/03/07 02:48:49;;;;;;;16.27;8.37;;;-1.00;94.80;;;;;;4405050;32;20164;-64
2021/03/07 02:51:16;;;;;;;14.60;8.17;;;-1.00;94.80;;;;;;4406299;32;20181;-65
2021/03/07 02:53:42;;;;;;;13.63;7.37;;;-1.10;94.80;;;;;;4409714;32;20220;-64
2021/03/07 02:56:18;;;;;;;12.87;8.40;;;-1.10;94.80;;;;;;4413657;32;20491;-64
2021/03/07 02:58:46;;;;;;;11.97;8.20;;;-1.00;94.90;;;;;;4400185;32;20168;-64
2021/03/07 03:01:20;;;;;;;15.03;9.13;;;-1.10;94.80;;;;;;4414461;32;20151;-65
2021/03/07 03:03:49;;;;;;;12.07;7.23;;;-1.10;94.80;;;;;;4415186;32;20155;-64
2021/03/07 03:06:22;;;;;;;16.20;8.77;;;-1.10;94.80;;;;;;4414715;32;20288;-66
2021/03/07 03:08:54;;;;;;;14.47;8.23;;;-1.20;94.80;;;;;;4411659;32;20568;-63
2021/03/07 03:11:24;;;;;;;13.57;8.43;;;-1.20;94.80;;;;;;4404651;32;20167;-65
2021/03/07 03:13:54;;;;;;;12.10;7.63;;;-1.20;94.80;;;;;;4416360;32;20147;-63
2021/03/07 03:16:24;;;;;;;13.90;8.30;;;-1.20;94.80;;;;;;4412406;32;20162;-65
2021/03/07 03:19:01;;;;;;;11.67;8.00;;;-1.20;94.80;;;;;;4407338;32;20166;-63
2021/03/07 03:21:31;;;;;;;13.47;8.20;;;-1.20;94.90;;;;;;4409591;32;20165;-65
2021/03/07 03:24:01;;;;;;;18.73;8.90;;;-1.20;94.90;;;;;;4405998;32;20595;-64
2021/03/07 03:26:31;;;;;;;13.10;8.37;;;-1.20;94.90;;;;;;4408033;32;20166;-65
2021/03/07 03:29:08;;;;;;;12.33;8.20;;;-1.20;95.00;;;;;;4412658;32;20197;-65
2021/03/07 03:31:38;;;;;;;16.57;7.93;;;-1.20;95.10;;;;;;4419356;32;20151;-65
2021/03/07 03:34:05;;;;;;;12.43;7.47;;;-1.20;95.00;;;;;;4417613;32;20523;-64
2021/03/07 03:36:40;;;;;;;11.83;7.90;;;-1.20;95.00;;;;;;4413453;32;20192;-65
2021/03/07 03:39:12;;;;;;;13.80;7.70;;;-1.20;95.00;;;;;;4410239;32;20236;-64
2021/03/07 03:41:43;;;;;;;14.87;7.50;;;-1.30;94.90;;;;;;4410634;32;20607;-64
2021/03/07 03:44:17;;;;;;;12.53;8.00;;;-1.40;94.90;;;;;;4407539;32;20185;-65
2021/03/07 03:46:47;;;;;;;16.53;7.77;;;-1.40;94.90;;;;;;4414457;32;20519;-65
2021/03/07 03:49:21;;;;;;;12.13;6.83;;;-1.40;94.90;;;;;;4410461;32;20174;-63
2021/03/07 03:51:51;;;;;;;11.97;7.73;;;-1.40;94.90;;;;;;4409830;32;20556;-63
2021/03/07 03:54:24;;;;;;;11.80;6.50;;;-1.40;94.90;;;;;;4414853;32;20190;-64
2021/03/07 03:56:52;;;;;;;14.50;7.63;;;-1.40;94.90;;;;;;4409382;32;20170;-64
2021/03/07 03:59:20;;;;;;;12.17;7.50;;;-1.40;94.90;;;;;;4412941;32;20605;-63
2021/03/07 04:01:53;;;;;;;17.03;7.87;;;-1.40;94.80;;;;;;4410654;32;20207;-66
2021/03/07 04:04:19;;;;;;;11.87;6.97;;;-1.50;94.90;;;;;;4409237;32;20167;-65
2021/03/07 04:06:49;;;;;;;14.40;7.27;;;-1.50;95.00;;;;;;4414337;32;20182;-64
2021/03/07 04:09:16;;;;;;;12.10;7.23;;;-1.50;95.00;;;;;;4417450;32;20164;-64
2021/03/07 04:11:42;;;;;;;11.37;7.10;;;-1.40;95.10;;;;;;4416270;32;20191;-63
2021/03/07 04:14:10;;;;;;;11.83;7.37;;;-1.30;95.20;;;;;;4421046;32;20191;-64
2021/03/07 04:16:38;;;;;;;14.50;8.20;;;-1.20;95.40;;;;;;4411140;32;20159;-64
2021/03/07 04:19:06;;;;;;;12.17;7.87;;;-1.00;95.40;;;;;;4406847;32;20175;-64
2021/03/07 04:21:37;;;;;;;17.30;7.87;;;-0.90;95.30;;;;;;4407216;32;20207;-64
2021/03/07 04:24:04;;;;;;;13.17;8.20;;;-0.90;94.80;;;;;;4408004;32;20163;-64
2021/03/07 04:26:30;;;;;;;13.70;7.97;;;-0.80;94.40;;;;;;4410372;32;20182;-65
2021/03/07 04:28:57;;;;;;;12.30;7.63;;;-0.60;94.30;;;;;;4414426;32;20279;-65
2021/03/07 04:31:27;;;;;;;11.63;7.03;;;-0.40;94.20;;;;;;4410434;32;20203;-64
2021/03/07 04:34:06;;;;;;;13.63;8.17;;;-0.40;93.90;;;;;;4412232;32;20213;-64
2021/03/07 04:36:33;;;;;;;11.70;7.63;;;-0.20;93.80;;;;;;4408934;32;20157;-65
2021/03/07 04:39:00;;;;;;;20.03;9.03;;;-0.20;93.70;;;;;;4415665;32;20208;-65
2021/03/07 04:41:26;;;;;;;13.63;8.33;;;-0.10;93.70;;;;;;4415819;32;20164;-65
2021/03/07 04:44:01;;;;;;;16.10;8.17;;;0.00;93.60;;;;;;4413879;32;20217;-65
2021/03/07 04:46:34;;;;;;;12.90;7.87;;;0.00;93.60;;;;;;4409793;32;20167;-65
2021/03/07 04:49:09;;;;;;;17.37;8.43;;;0.00;93.40;;;;;;4410308;32;20306;-64
2021/03/07 04:51:40;;;;;;;14.63;7.77;;;0.00;93.60;;;;;;4408943;32;20237;-64
2021/03/07 04:54:12;;;;;;;14.23;8.10;;;0.00;93.50;;;;;;4414591;32;20159;-64
2021/03/07 04:56:39;;;;;;;12.07;7.23;;;0.10;93.50;;;;;;4417180;32;20221;-63
2021/03/07 04:59:05;;;;;;;11.20;7.67;;;0.10;93.60;;;;;;4415282;32;20205;-64
2021/03/07 05:01:40;;;;;;;14.97;7.73;;;0.20;93.50;;;;;;4411247;32;20198;-63
2021/03/07 05:04:09;;;;;;;12.20;8.20;;;0.20;93.50;;;;;;4407463;32;20151;-63
2021/03/07 05:06:39;;;;;;;13.57;7.33;;;0.30;93.60;;;;;;4406346;32;20597;-64
2021/03/07 05:09:12;;;;;;;10.07;7.13;;;0.30;93.60;;;;;;4407050;32;20160;-64
2021/03/07 05:11:40;;;;;;;11.47;7.43;;;0.40;93.50;;;;;;4406251;32;20222;-64
2021/03/07 05:14:09;;;;;;;11.63;7.67;;;0.40;93.30;;;;;;4406711;32;20520;-64
2021/03/07 05:16:41;;;;;;;12.63;7.67;;;0.40;93.30;;;;;;4407623;32;20217;-63
2021/03/07 05:19:11;;;;;;;12.33;7.13;;;0.40;93.60;;;;;;4413072;32;20195;-63
2021/03/07 05:21:40;;;;;;;15.60;7.60;;;0.50;93.30;;;;;;4412082;32;20213;-64
2021/03/07 05:24:09;;;;;;;13.23;7.20;;;0.50;93.20;;;;;;4408617;32;20151;-63
2021/03/07 05:26:43;;;;;;;11.07;7.13;;;0.50;93.20;;;;;;4416030;32;20159;-63
2021/03/07 05:29:09;;;;;;;13.00;7.77;;;0.60;93.10;;;;;;4406434;32;20198;-63
2021/03/07 05:31:52;;;;;;;13.13;7.43;;;0.60;93.20;;;;;;4406978;32;20160;-64
2021/03/07 05:34:22;;;;;;;19.63;8.33;;;0.70;93.10;;;;;;4405036;32;20199;-64
2021/03/07 05:36:49;;;;;;;10.83;7.70;;;0.70;93.10;;;;;;4409084;32;20179;-64
2021/03/07 05:39:20;;;;;;;11.80;6.90;;;0.70;93.10;;;;;;4408292;32;20194;-65
2021/03/07 05:41:48;;;;;;;11.60;7.13;;;0.70;93.10;;;;;;4414455;32;20194;-64
2021/03/07 05:44:19;;;;;;;10.07;7.40;;;0.70;93.10;;;;;;4413230;32;20248;-64
2021/03/07 05:46:46;;;;;;;11.90;7.20;;;0.80;92.90;;;;;;4409095;32;20181;-63
2021/03/07 05:49:20;;;;;;;14.70;7.70;;;0.80;93.00;;;;;;4408772;32;20244;-63
2021/03/07 05:51:50;;;;;;;14.23;8.23;;;0.80;93.00;;;;;;4418166;32;20594;-64
2021/03/07 05:54:17;;;;;;;12.27;7.63;;;0.90;93.00;;;;;;4415741;32;20248;-63
2021/03/07 05:56:50;;;;;;;12.60;7.57;;;0.90;93.00;;;;;;4407278;32;20215;-64
2021/03/07 05:59:23;;;;;;;13.73;8.10;;;0.90;93.00;;;;;;4409464;32;20245;-63
2021/03/07 06:01:50;;;;;;;12.10;7.07;;;1.00;93.00;;;;;;4410947;32;20167;-64
2021/03/07 06:04:16;;;;;;;13.60;8.23;;;1.00;93.00;;;;;;4415205;32;20262;-64
2021/03/07 06:06:42;;;;;;;12.90;7.90;;;1.10;92.90;;;;;;4407236;32;20218;-64
2021/03/07 06:09:28;;;;;;;10.67;7.10;;;1.10;92.90;;;;;;4407326;32;20156;-65
2021/03/07 06:11:59;;;;;;;15.70;8.40;;;1.10;92.80;;;;;;4395042;32;20187;-65
2021/03/07 06:14:27;;;;;;;11.37;7.37;;;1.10;92.90;;;;;;4410585;32;20555;-66
2021/03/07 06:17:07;;;;;;;11.23;7.07;;;1.10;92.80;;;;;;4413542;32;20163;-65
2021/03/07 06:19:55;;;;;;;14.33;7.57;;;1.10;92.90;;;;;;4411836;32;20159;-64
2021/03/07 06:22:22;;;;;;;10.73;6.90;;;1.20;92.90;;;;;;4416303;32;20648;-64
2021/03/07 06:24:49;;;;;;;12.07;7.17;;;1.20;92.90;;;;;;4405186;32;20182;-64
2021/03/07 06:27:18;;;;;;;12.23;8.03;;;1.20;93.00;;;;;;4411572;32;20550;-63
2021/03/07 06:30:01;;;;;;;12.63;7.40;;;1.30;93.00;;;;;;4404890;32;20225;-62
2021/03/07 06:32:37;;;;;;;11.43;7.70;;;1.30;92.90;;;;;;4415401;32;20159;-62
2021/03/07 06:35:11;;;;;;;15.10;8.00;;;1.30;92.80;;;;;;4328289;32;2938114;-63
2021/03/07 06:37:58;;;;;;;10.17;7.37;;;1.40;92.90;;;;;;4421861;32;20555;-65
2021/03/07 06:40:31;;;;;;;14.20;8.23;;;1.40;93.10;;;;;;4420136;32;20263;-63
2021/03/07 06:42:59;;;;;;;13.57;9.10;;;1.50;92.80;;;;;;4418208;32;20197;-64
2021/03/07 06:45:38;;;;;;;13.70;8.17;;;1.50;92.70;;;;;;4416755;32;21289;-63
2021/03/07 06:48:07;;;;;;;10.50;7.83;;;1.60;92.60;;;;;;4417423;32;20507;-63
2021/03/07 06:50:34;;;;;;;13.53;8.90;;;1.60;92.40;;;;;;4417606;32;20234;-63
2021/03/07 06:53:04;;;;;;;15.40;8.53;;;1.60;92.50;;;;;;4416696;32;20158;-65
2021/03/07 06:55:43;;;;;;;13.20;8.30;;;1.70;92.50;;;;;;4420936;32;20165;-63
2021/03/07 06:58:15;;;;;;;12.70;8.43;;;1.80;92.40;;;;;;4417999;32;20175;-64
2021/03/07 07:00:44;;;;;;;13.23;8.47;;;1.70;92.70;;;;;;4415198;32;20222;-63
2021/03/07 07:03:22;;;;;;;13.27;8.23;;;1.80;92.50;;;;;;4416616;32;20442;-63
2021/03/07 07:05:50;;;;;;;16.43;9.37;;;1.80;92.50;;;;;;4419192;32;20162;-64
2021/03/07 07:08:18;;;;;;;13.70;9.40;;;1.80;92.40;;;;;;4411897;32;20168;-65
2021/03/07 07:11:06;;;;;;;15.47;9.27;;;1.90;92.20;;;;;;4413666;32;20210;-64
2021/03/07 07:13:44;;;;;;;18.83;9.83;;;2.00;92.10;;;;;;4412412;32;20295;-64
2021/03/07 07:16:14;;;;;;;15.47;9.80;;;2.10;92.10;;;;;;4415644;32;20165;-64
2021/03/07 07:18:49;;;;;;;15.57;9.73;;;2.20;91.80;;;;;;4419001;32;20192;-62
2021/03/07 07:21:28;;;;;;;16.53;9.47;;;2.20;91.80;;;;;;4415269;32;20213;-62
2021/03/07 07:23:55;;;;;;;15.77;9.77;;;2.40;91.60;;;;;;4420576;32;20147;-65
2021/03/07 07:26:27;;;;;;;16.20;9.87;;;2.40;91.60;;;;;;4423960;32;20147;-63
2021/03/07 07:28:58;;;;;;;15.97;10.30;;;2.50;91.40;;;;;;4421571;32;20152;-62
2021/03/07 07:31:35;;;;;;;15.57;9.10;;;2.60;91.40;;;;;;4413751;32;20568;-63
2021/03/07 07:34:11;;;;;;;14.87;8.83;;;2.70;91.30;;;;;;4419925;32;20219;-62
2021/03/07 07:36:51;;;;;;;15.83;8.93;;;2.80;91.20;;;;;;4409692;32;20169;-63
2021/03/07 07:39:28;;;;;;;12.30;9.57;;;2.90;91.40;;;;;;4421682;32;20147;-63
2021/03/07 07:41:57;;;;;;;12.33;8.17;;;3.00;91.10;;;;;;4420020;32;20643;-66
2021/03/07 07:44:35;;;;;;;15.97;8.97;;;3.10;91.00;;;;;;4417914;32;20161;-63
2021/03/07 07:47:04;;;;;;;15.07;9.63;;;3.20;90.80;;;;;;4414152;32;20223;-64
2021/03/07 07:49:43;;;;;;;14.00;8.67;;;3.30;90.40;;;;;;4421027;32;20178;-63
2021/03/07 07:52:37;;;;;;;16.97;9.93;;;3.30;90.80;;;;;;4421125;32;20135;-66
2021/03/07 07:55:12;;;;;;;10.40;7.60;;;3.50;90.70;;;;;;4372442;32;20318;-67
2021/03/07 07:57:45;;;;;;;13.77;9.53;;;3.60;90.50;;;;;;4372709;32;20174;-65
2021/03/07 08:00:17;;;;;;;11.93;8.90;;;3.70;90.40;;;;;;4374851;32;20614;-64
2021/03/07 08:03:11;;;;;;;12.53;8.67;;;3.90;90.10;;;;;;4373655;32;20163;-65
2021/03/07 08:05:47;;;;;;;14.70;9.93;;;3.90;90.10;;;;;;4323356;33;20187;-66
2021/03/07 08:08:19;;;;;;;11.50;9.20;;;4.00;90.00;;;;;;4329413;33;20749;-65
2021/03/07 08:10:58;;;;;;;13.93;8.67;;;4.10;90.00;;;;;;4329400;33;20225;-65
2021/03/07 08:13:50;;;;;;;12.23;8.67;;;4.20;90.00;;;;;;4325964;33;20145;-66
2021/03/07 08:16:37;;;;;;;14.67;8.93;;;4.40;89.50;;;;;;4326948;33;20196;-68
2021/03/07 08:19:05;;;;;;;14.63;9.03;;;4.60;89.00;;;;;;4328490;33;20236;-66
2021/03/07 08:21:59;;;;;;;12.27;8.27;;;4.80;88.60;;;;;;4327073;33;20237;-66
2021/03/07 08:24:52;;;;;;;12.13;8.43;;;4.90;87.60;;;;;;4325379;33;20283;-66
2021/03/07 08:27:44;;;;;;;12.60;8.87;;;5.10;86.60;;;;;;4324388;33;20225;-67
2021/03/07 08:30:14;;;;;;;14.33;8.80;;;5.00;86.70;;;;;;4322248;33;20208;-65
2021/03/07 08:32:45;;;;;;;13.80;9.07;;;5.10;86.40;;;;;;4332934;33;20246;-67
2021/03/07 08:35:20;;;;;;;11.47;8.47;;;5.10;86.00;;;;;;4343374;33;20236;-69
2021/03/07 08:38:19;;;;;;;13.50;9.07;;;5.00;86.10;;;;;;4336858;33;20205;-66
2021/03/07 08:40:56;;;;;;;11.33;8.80;;;5.20;86.10;;;;;;4308768;33;20513;-65
2021/03/07 08:43:57;;;;;;;11.10;9.07;;;5.20;86.00;;;;;;4366680;32;20200;-64
2021/03/07 08:46:25;;;;;;;14.90;9.57;;;5.30;85.80;;;;;;4365112;32;20178;-64
2021/03/07 08:48:54;;;;;;;12.40;8.90;;;5.30;85.70;;;;;;4363481;32;20174;-66
2021/03/07 08:51:33;;;;;;;12.00;8.60;;;5.40;85.60;;;;;;4364153;32;20222;-66
2021/03/07 08:54:07;;;;;;;13.77;9.20;;;5.60;85.40;;;;;;4364322;32;20204;-64
2021/03/07 08:56:37;;;;;;;10.97;9.13;;;5.50;84.90;;;;;;4363162;32;20746;-67
2021/03/07 08:59:14;;;;;;;15.03;9.70;;;5.70;84.80;;;;;;4366280;32;20576;-66
2021/03/07 09:01:41;;;;;;;11.27;9.27;;;5.90;83.70;;;;;;4366533;32;20171;-66
2021/03/07 09:04:09;;;;;;;14.60;10.20;;;6.10;83.60;;;;;;4367826;32;20152;-65
2021/03/07 09:06:38;;;;;;;14.30;10.17;;;6.10;82.70;;;;;;4366413;32;20230;-67
2021/03/07 09:09:18;;;;;;;14.97;10.60;;;6.30;82.40;;;;;;4362748;32;20156;-66
2021/03/07 09:11:52;;;;;;;16.50;10.80;;;6.50;81.90;;;;;;4361505;32;20306;-67
2021/03/07 09:14:28;;;;;;;15.23;10.70;;;6.80;80.90;;;;;;4359781;32;20228;-65
2021/03/07 09:17:03;;;;;;;18.53;11.50;;;7.00;80.10;;;;;;4377854;32;20226;-67
2021/03/07 09:19:32;;;;;;;16.67;11.07;;;7.30;79.20;;;;;;4415841;32;20567;-66
2021/03/07 09:22:23;;;;;;;16.80;12.53;;;7.40;77.50;;;;;;4411214;32;20155;-66
2021/03/07 09:25:06;;;;;;;18.27;12.00;;;7.60;76.70;;;;;;4353261;32;20228;-66
2021/03/07 09:27:38;;;;;;;19.07;12.87;;;7.80;77.00;;;;;;4349283;32;20156;-65
2021/03/07 09:30:16;;;;;;;17.47;11.77;;;8.00;75.70;;;;;;4350887;32;20141;-62
2021/03/07 09:32:45;;;;;;;15.97;11.43;;;8.10;74.70;;;;;;4353165;33;20152;-66
2021/03/07 09:35:31;;;;;;;17.87;13.20;;;8.30;74.40;;;;;;4349578;32;20183;-66
2021/03/07 09:38:06;;;;;;;17.83;12.90;;;8.40;73.80;;;;;;4351375;32;20149;-66
2021/03/07 09:40:35;;;;;;;15.47;11.63;;;8.30;72.10;;;;;;4353069;32;20217;-67
2021/03/07 09:43:09;;;;;;;16.43;12.57;;;8.10;73.00;;;;;;4351058;32;20168;-68
2021/03/07 09:45:38;;;;;;;17.60;12.97;;;8.10;73.30;;;;;;4351992;32;20165;-67
2021/03/07 09:48:08;;;;;;;16.87;13.40;;;8.10;71.80;;;;;;4354003;32;20528;-66
2021/03/07 09:50:37;;;;;;;18.43;13.53;;;8.30;70.70;;;;;;4353479;33;20663;-67
2021/03/07 09:53:05;;;;;;;17.90;13.07;;;8.30;69.50;;;;;;4350851;32;20160;-67
2021/03/07 09:55:35;;;;;;;15.23;13.03;;;8.20;68.00;;;;;;4348443;32;20334;-66
2021/03/07 09:58:03;;;;;;;17.87;13.17;;;8.30;67.60;;;;;;4351597;32;20335;-66
2021/03/07 10:00:31;;;;;;;16.23;12.90;;;8.50;67.60;;;;;;4357201;32;20235;-67
2021/03/07 10:03:02;;;;;;;20.53;14.13;;;8.70;67.60;;;;;;4410507;32;20229;-66
2021/03/07 10:05:31;;;;;;;17.43;13.33;;;8.90;64.90;;;;;;4416507;32;20140;-69
2021/03/07 10:07:57;;;;;;;14.73;12.43;;;8.70;64.90;;;;;;4414286;32;20163;-66
2021/03/07 10:10:25;;;;;;;16.43;13.50;;;8.50;63.00;;;;;;4411182;32;20187;-68
2021/03/07 10:12:54;;;;;;;19.53;13.43;;;8.20;60.40;;;;;;4419846;32;20572;-68
2021/03/07 10:15:29;;;;;;;13.50;11.10;;;8.60;61.20;;;;;;4411507;32;20198;-66
2021/03/07 10:18:00;;;;;;;17.07;10.90;;;8.80;61.30;;;;;;4414672;32;20181;-65
2021/03/07 10:20:33;;;;;;;18.97;12.07;;;9.40;59.20;;;;;;4417492;32;20166;-66
2021/03/07 10:23:00;;;;;;;12.37;9.97;;;9.30;58.50;;;;;;4411784;32;20181;-67
2021/03/07 10:25:29;;;;;;;12.77;10.40;;;8.90;56.90;;;;;;4415557;32;20223;-67
2021/03/07 10:28:04;;;;;;;11.50;8.53;;;9.00;58.40;;;;;;4414863;32;20588;-66
2021/03/07 10:30:33;;;;;;;13.27;9.80;;;9.20;58.80;;;;;;4409799;32;20266;-67
2021/03/07 10:33:12;;;;;;;16.53;10.67;;;9.50;57.90;;;;;;4406573;32;21303;-66
2021/03/07 10:35:39;;;;;;;7.77;5.70;;;9.70;58.00;;;;;;4409582;32;20163;-69
2021/03/07 10:38:17;;;;;;;8.80;6.00;;;9.30;56.90;;;;;;4409353;32;20207;-68
2021/03/07 10:40:44;;;;;;;12.37;8.80;;;9.30;55.80;;;;;;4409182;32;20210;-69
2021/03/07 10:43:11;;;;;;;10.07;7.33;;;9.30;55.50;;;;;;4410172;32;20215;-70
2021/03/07 10:45:41;;;;;;;7.07;5.83;;;9.60;57.00;;;;;;4410633;32;20170;-69
2021/03/07 10:48:12;;;;;;;8.40;5.63;;;9.00;54.60;;;;;;4410238;32;20475;-69
2021/03/07 10:53:28;;;;;;;7.50;4.70;;;9.30;55.80;;;;;;4410213;32;20320;-68
2021/03/07 10:55:55;;;;;;;7.20;5.00;;;9.50;53.50;;;;;;4415652;32;20170;-67
2021/03/07 10:58:25;;;;;;;5.67;3.60;;;9.40;54.60;;;;;;4411908;32;20473;-67
2021/03/07 11:00:55;;;;;;;5.63;3.73;;;9.70;54.00;;;;;;4415364;32;20164;-67
2021/03/07 11:03:22;;;;;;;4.43;2.70;;;9.70;53.10;;;;;;4414802;32;20143;-67
2021/03/07 11:05:50;;;;;;;4.53;3.00;;;9.00;51.50;;;;;;4421226;32;20174;-69
2021/03/07 11:08:17;;;;;;;4.13;2.73;;;8.80;55.30;;;;;;4423189;32;20179;-67
2021/03/07 11:10:55;;;;;;;4.00;3.27;;;8.70;54.90;;;;;;4422168;32;20244;-69
2021/03/07 11:13:25;;;;;;;6.57;3.27;;;9.20;53.90;;;;;;4415967;32;20159;-68
2021/03/07 11:16:14;;;;;;;4.27;3.30;;;9.50;53.90;;;;;;4418976;32;20154;-67
2021/03/07 11:18:41;;;;;;;7.30;3.77;;;9.90;53.90;;;;;;4416209;32;20228;-68
2021/03/07 11:21:07;;;;;;;5.63;4.13;;;10.00;51.50;;;;;;4416264;32;20229;-67
2021/03/07 11:23:41;;;;;;;5.20;3.43;;;9.70;51.60;;;;;;4409344;32;20156;-68
2021/03/07 11:26:16;;;;;;;6.03;3.23;;;9.10;53.70;;;;;;4402025;32;20491;-70
2021/03/07 11:28:50;;;;;;;4.27;3.03;;;9.10;54.40;;;;;;4409994;32;20221;-68
2021/03/07 11:31:21;;;;;;;3.10;2.37;;;8.90;53.40;;;;;;4410590;32;20351;-67
2021/03/07 11:37:03;;;;;;;4.83;2.60;;;8.00;56.00;;;;;;4357721;32;20251;-69
2021/03/07 11:40:38;;;;;;;3.27;2.10;;;7.90;57.20;;;;;;4357271;32;20180;-69
2021/03/07 11:43:06;;;;;;;3.93;2.93;;;7.90;56.40;;;;;;4308278;33;20138;-68
2021/03/07 11:45:34;;;;;;;5.30;3.30;;;8.00;57.40;;;;;;4310665;33;20185;-68
2021/03/07 11:48:00;;;;;;;5.27;3.50;;;7.50;58.30;;;;;;4311571;33;20244;-68
2021/03/07 11:50:28;;;;;;;6.97;4.20;;;7.50;59.70;;;;;;4311794;33;20178;-66
2021/03/07 11:52:57;;;;;;;5.47;3.97;;;7.80;60.30;;;;;;4305705;33;20232;-68
2021/03/07 11:55:31;;;;;;;5.27;3.70;;;8.00;59.70;;;;;;4309533;33;20236;-69
2021/03/07 11:57:59;;;;;;;5.77;4.20;;;8.40;59.60;;;;;;4309306;33;20157;-66
2021/03/07 12:00:35;;;;;;;5.00;3.40;;;8.40;56.80;;;;;;4309863;33;20229;-69
2021/03/07 12:03:01;;;;;;;7.23;3.50;;;8.50;56.80;;;;;;4310103;33;20180;-68
2021/03/07 12:05:32;;;;;;;6.03;3.10;;;8.20;57.90;;;;;;4309118;33;20195;-66
2021/03/07 12:07:59;;;;;;;7.13;3.57;;;8.50;58.10;;;;;;4347272;32;20165;-70
2021/03/07 12:10:26;;;;;;;6.50;4.53;;;7.70;58.30;;;;;;4370011;32;20746;-69
2021/03/07 12:12:54;;;;;;;5.67;3.70;;;7.70;60.00;;;;;;4369047;32;20156;-67
2021/03/07 12:15:21;;;;;;;5.77;3.50;;;8.10;59.30;;;;;;4368003;32;20572;-67
2021/03/07 12:17:48;;;;;;;6.13;3.50;;;7.60;58.60;;;;;;4367762;32;20152;-66
2021/03/07 12:20:17;;;;;;;6.20;3.80;;;7.40;60.40;;;;;;4394050;32;20213;-69
2021/03/07 12:22:46;;;;;;;5.97;3.83;;;7.40;61.40;;;;;;4408682;32;20170;-67
2021/03/07 12:25:23;;;;;;;5.17;3.40;;;7.70;61.30;;;;;;4409575;32;20252;-68
2021/03/07 12:27:55;;;;;;;5.87;3.57;;;8.00;61.10;;;;;;4410185;32;20662;-67
2021/03/07 12:30:25;;;;;;;7.20;4.43;;;7.70;61.10;;;;;;4410171;32;20144;-67
2021/03/07 12:32:57;;;;;;;4.33;3.37;;;7.50;62.50;;;;;;4408567;32;20234;-67
2021/03/07 12:35:28;;;;;;;4.50;3.20;;;7.00;62.30;;;;;;4407751;32;20168;-67
2021/03/07 12:38:10;;;;;;;6.23;4.30;;;7.00;64.00;;;;;;4406750;32;20352;-67
2021/03/07 12:40:39;;;;;;;4.67;3.27;;;6.70;65.20;;;;;;4405891;32;20505;-67
2021/03/07 12:43:16;;;;;;;6.33;4.43;;;6.70;65.30;;;;;;4404827;32;20606;-68
2021/03/07 12:45:50;;;;;;;7.03;4.40;;;6.70;65.70;;;;;;4406139;32;20214;-66
2021/03/07 12:48:17;;;;;;;5.77;4.40;;;6.70;65.40;;;;;;4406306;32;20577;-67
2021/03/07 12:50:48;;;;;;;7.77;4.37;;;6.50;65.30;;;;;;4404480;32;20267;-67
2021/03/07 12:53:23;;;;;;;8.33;5.37;;;6.50;65.50;;;;;;4406181;32;20207;-66
2021/03/07 12:55:51;;;;;;;8.67;4.90;;;6.20;65.80;;;;;;4406990;32;20168;-64
2021/03/07 12:58:18;;;;;;;8.53;5.43;;;6.30;65.90;;;;;;4404924;32;20238;-67
2021/03/07 13:01:01;;;;;;;7.77;5.27;;;6.10;66.50;;;;;;4404376;32;20678;-66
2021/03/07 13:03:37;;;;;;;9.10;5.77;;;6.00;66.50;;;;;;4406362;32;20688;-66
2021/03/07 13:06:07;;;;;;;10.17;5.27;;;6.20;66.60;;;;;;4406754;32;20186;-69
2021/03/07 13:08:38;;;;;;;9.63;4.83;;;6.30;66.50;;;;;;4405531;32;20196;-67
2021/03/07 13:11:09;;;;;;;7.23;4.90;;;6.60;65.10;;;;;;4404446;32;20183;-67
2021/03/07 13:13:41;;;;;;;8.70;5.93;;;6.80;63.90;;;;;;4407772;32;20205;-69